Terminal Aerodrome Forecast
Issued by NWS

Home | Current Version | Previous Version | Graphics & Text | Print | Product List | Glossary On
Versions: 1 2 3 4 5 6 7 8 9 10 11 12 13 14 15 16 17 18 19 20 21 22 23 24 25 26 27 28 29 30
000
FTUS45 KGGW 290100 AAA
TAFGDV
TAF AMD
KGDV 290143Z 2902/2924 02015KT P6SM BKN025
     FM290600 01011KT P6SM BKN080
     FM290900 36008KT P6SM BKN080
     FM291800 34008KT P6SM SCT070 BKN120
      AMD LTD TO CLD VIS AND WIND=

USA.gov is the U.S. government's official web portal to all federal, state and local government web resources and services.